Time;durP1;ratioP1;P1;durP2;ratioP2;P2;SDS_P1;SDS_P2;PMS_P1;PMS_P2;Temp;Humidity;BMP_temperature;BMP_pressure;BME280_temperature;BME280_humidity;BME280_pressure;Samples;Min_cycle;Max_cycle;Signal;HPM_P1;HPM_P2
2023/01/26 00:01:10;;;;;;;19.43;12.83;;;2.90;67.20;;;;;;5116005;28;20400;-81
2023/01/26 00:03:36;;;;;;;22.80;13.47;;;2.90;66.90;;;;;;5115243;28;22228;-80
2023/01/26 00:06:06;;;;;;;19.10;12.63;;;2.90;66.70;;;;;;5116500;28;20400;-81
2023/01/26 00:08:40;;;;;;;20.63;12.43;;;3.00;66.40;;;;;;5115434;28;20433;-79
2023/01/26 00:11:07;;;;;;;20.10;12.53;;;3.00;66.40;;;;;;5115170;28;20415;-80
2023/01/26 00:13:33;;;;;;;16.33;12.20;;;3.00;66.30;;;;;;5116863;28;20507;-81
2023/01/26 00:16:00;;;;;;;20.83;12.50;;;3.00;66.40;;;;;;5115962;28;20401;-81
2023/01/26 00:18:29;;;;;;;19.77;11.47;;;3.00;66.30;;;;;;5120573;28;20505;-80
2023/01/26 00:21:00;;;;;;;18.20;12.20;;;3.00;66.30;;;;;;5120854;28;20471;-81
2023/01/26 00:23:28;;;;;;;18.03;13.33;;;3.10;66.50;;;;;;5116737;28;20414;-80
2023/01/26 00:25:54;;;;;;;19.60;13.53;;;3.00;66.10;;;;;;5116550;28;20400;-80
2023/01/26 00:28:19;;;;;;;19.53;13.80;;;3.00;66.20;;;;;;5116335;28;20426;-81
2023/01/26 00:30:45;;;;;;;16.90;11.97;;;2.90;66.30;;;;;;5115691;28;20182;-81
2023/01/26 00:33:11;;;;;;;19.43;12.57;;;2.90;66.50;;;;;;5115084;28;20177;-81
2023/01/26 00:35:37;;;;;;;18.60;11.60;;;2.80;66.70;;;;;;5114226;28;20232;-80
2023/01/26 00:38:03;;;;;;;19.47;12.50;;;2.80;67.00;;;;;;5116025;28;20190;-81
2023/01/26 00:40:29;;;;;;;15.67;11.83;;;2.70;67.10;;;;;;5114723;28;20187;-80
2023/01/26 00:42:55;;;;;;;20.23;12.43;;;2.70;67.20;;;;;;5114595;28;20410;-80
2023/01/26 00:45:21;;;;;;;19.80;13.30;;;2.80;67.40;;;;;;5115018;28;20495;-80
2023/01/26 00:47:47;;;;;;;19.20;12.80;;;2.70;66.90;;;;;;5114820;28;20828;-80
2023/01/26 00:50:13;;;;;;;17.63;11.13;;;2.70;66.80;;;;;;5115920;28;20415;-80
2023/01/26 00:52:38;;;;;;;18.03;13.00;;;2.70;66.90;;;;;;5119311;28;20203;-80
2023/01/26 00:55:04;;;;;;;22.87;14.00;;;2.70;67.20;;;;;;5118107;28;20821;-80
2023/01/26 00:57:30;;;;;;;17.73;12.37;;;2.70;67.10;;;;;;5118997;28;20910;-87
2023/01/26 00:59:56;;;;;;;19.57;12.73;;;2.60;67.00;;;;;;5119599;28;20426;-87
2023/01/26 01:02:22;;;;;;;20.83;14.60;;;2.70;67.30;;;;;;5119626;28;20439;-86
2023/01/26 01:04:47;;;;;;;17.87;12.40;;;2.70;67.70;;;;;;5118954;28;20229;-84
2023/01/26 01:07:13;;;;;;;19.90;13.10;;;2.70;67.80;;;;;;5119551;28;20175;-86
2023/01/26 01:09:39;;;;;;;20.57;14.03;;;2.60;67.50;;;;;;5119381;28;20262;-88
2023/01/26 01:12:05;;;;;;;21.53;12.40;;;2.60;67.80;;;;;;5120271;28;20203;-87
2023/01/26 01:14:31;;;;;;;16.97;12.33;;;2.50;68.10;;;;;;5118234;28;20198;-87
2023/01/26 01:16:57;;;;;;;22.50;13.77;;;2.50;68.40;;;;;;5118471;28;20954;-88
2023/01/26 01:19:22;;;;;;;20.77;13.87;;;2.50;68.10;;;;;;5117908;28;20198;-87
2023/01/26 01:21:49;;;;;;;19.87;12.97;;;2.60;68.00;;;;;;5123293;28;20309;-87
2023/01/26 01:24:14;;;;;;;19.37;12.43;;;2.60;68.00;;;;;;5121854;28;20184;-88
2023/01/26 01:26:40;;;;;;;21.97;15.27;;;2.70;67.90;;;;;;5118579;28;20413;-87
2023/01/26 01:29:06;;;;;;;21.63;14.00;;;2.60;67.80;;;;;;5119571;28;20260;-87
2023/01/26 01:31:42;;;;;;;21.37;13.80;;;2.60;67.90;;;;;;5117601;28;20191;-87
2023/01/26 01:34:08;;;;;;;20.73;12.67;;;2.60;68.00;;;;;;5118581;28;20458;-87
2023/01/26 01:36:34;;;;;;;19.30;13.03;;;2.60;68.00;;;;;;5118622;28;20414;-87
2023/01/26 01:39:00;;;;;;;22.20;15.57;;;2.70;67.90;;;;;;5117433;28;20956;-87
2023/01/26 01:41:26;;;;;;;20.10;12.57;;;2.70;67.70;;;;;;5118289;28;20191;-87
2023/01/26 01:44:28;;;;;;;20.83;12.90;;;2.70;67.40;;;;;;5118138;28;20464;-80
2023/01/26 01:46:57;;;;;;;20.10;12.57;;;2.70;67.40;;;;;;5116372;28;20464;-80
2023/01/26 01:49:32;;;;;;;20.47;13.40;;;2.60;67.10;;;;;;5117516;28;20437;-80
2023/01/26 01:52:12;;;;;;;19.43;11.97;;;2.70;67.40;;;;;;5116383;28;20416;-80
2023/01/26 01:54:51;;;;;;;17.90;11.90;;;2.70;67.60;;;;;;5117354;28;20866;-80
2023/01/26 01:57:27;;;;;;;19.83;13.10;;;2.60;67.50;;;;;;5115812;28;20409;-81
2023/01/26 02:00:05;;;;;;;20.23;13.77;;;2.50;68.00;;;;;;5116214;28;20978;-81
2023/01/26 02:02:31;;;;;;;22.83;14.07;;;2.40;68.30;;;;;;5117649;28;20398;-80
2023/01/26 02:05:06;;;;;;;20.90;13.60;;;2.50;68.40;;;;;;5116956;28;20586;-80
2023/01/26 02:07:32;;;;;;;21.77;13.77;;;2.50;68.50;;;;;;5115856;28;20425;-80
2023/01/26 02:10:17;;;;;;;20.00;12.50;;;2.40;68.20;;;;;;5116641;28;20428;-81
2023/01/26 02:12:45;;;;;;;20.03;12.70;;;2.30;68.40;;;;;;5116159;28;20514;-79
2023/01/26 02:15:10;;;;;;;16.83;11.80;;;2.20;68.70;;;;;;5115653;28;21049;-79
2023/01/26 02:17:37;;;;;;;18.20;11.93;;;2.10;68.80;;;;;;5116833;27;20418;-79
2023/01/26 02:20:27;;;;;;;19.27;13.50;;;2.10;69.10;;;;;;5116754;28;20245;-81
2023/01/26 02:23:04;;;;;;;19.20;13.07;;;2.20;69.20;;;;;;5117050;28;20501;-80
2023/01/26 02:25:51;;;;;;;24.50;13.60;;;2.30;69.10;;;;;;5117352;28;20397;-80
2023/01/26 02:28:20;;;;;;;17.73;12.03;;;2.30;68.90;;;;;;5115732;28;20524;-81
2023/01/26 02:30:46;;;;;;;18.83;11.80;;;2.40;68.60;;;;;;5115740;28;20413;-80
2023/01/26 02:33:27;;;;;;;20.73;14.87;;;2.50;68.40;;;;;;5115411;28;20409;-81
2023/01/26 02:35:52;;;;;;;21.67;14.17;;;2.60;68.00;;;;;;5120854;28;20470;-80
2023/01/26 02:38:20;;;;;;;22.60;12.80;;;2.60;67.90;;;;;;5120502;28;20436;-79
2023/01/26 02:40:59;;;;;;;16.27;11.67;;;2.60;67.70;;;;;;5116884;28;20190;-81
2023/01/26 02:43:26;;;;;;;20.17;13.10;;;2.60;67.50;;;;;;5116550;28;20388;-80
2023/01/26 02:45:53;;;;;;;18.93;10.80;;;2.60;67.20;;;;;;5115187;28;20414;-80
2023/01/26 02:51:04;;;;;;;21.80;12.20;;;2.50;67.30;;;;;;5116597;28;20433;-80
2023/01/26 02:53:30;;;;;;;19.30;12.93;;;2.50;67.40;;;;;;5115832;28;20779;-80
2023/01/26 02:55:55;;;;;;;15.50;9.70;;;2.30;67.50;;;;;;5114774;28;20435;-81
2023/01/26 02:58:21;;;;;;;18.63;11.03;;;2.30;67.80;;;;;;5116034;28;20558;-80
2023/01/26 03:00:47;;;;;;;16.57;10.80;;;2.30;67.90;;;;;;5114934;28;20657;-80
2023/01/26 03:03:21;;;;;;;18.40;10.20;;;2.30;68.10;;;;;;5115077;28;20176;-81
2023/01/26 03:05:50;;;;;;;15.10;9.80;;;2.30;67.90;;;;;;5115447;28;20171;-80
2023/01/26 03:08:16;;;;;;;16.10;10.57;;;2.40;68.10;;;;;;5115268;28;20433;-81
2023/01/26 03:10:42;;;;;;;14.67;9.57;;;2.30;67.80;;;;;;5116259;28;20535;-80
2023/01/26 03:13:08;;;;;;;18.10;11.60;;;2.30;67.80;;;;;;5115363;28;20165;-81
2023/01/26 03:15:41;;;;;;;19.27;11.40;;;2.40;67.70;;;;;;5114303;28;20460;-81
2023/01/26 03:29:14;;;;;;;17.47;12.00;;;2.70;66.80;;;;;;5116063;28;20516;-81
2023/01/26 03:31:40;;;;;;;16.93;11.10;;;2.70;66.60;;;;;;5114224;28;20476;-81
2023/01/26 03:34:05;;;;;;;15.53;10.30;;;2.70;66.50;;;;;;5114222;28;20563;-80
2023/01/26 03:36:31;;;;;;;20.40;12.40;;;2.70;66.70;;;;;;5114927;28;20180;-80
2023/01/26 03:38:57;;;;;;;16.63;11.83;;;2.70;66.50;;;;;;5115188;28;20192;-80
2023/01/26 03:57:48;;;;;;;15.57;10.23;;;2.40;67.00;;;;;;5115524;28;20441;-79
2023/01/26 04:00:14;;;;;;;18.97;12.33;;;2.40;67.10;;;;;;5115090;28;20500;-79
2023/01/26 04:08:22;;;;;;;19.50;10.77;;;2.50;66.60;;;;;;5115173;28;20563;-81
2023/01/26 04:10:53;;;;;;;14.50;10.37;;;2.50;67.10;;;;;;5115318;28;20407;-80
2023/01/26 04:21:36;;;;;;;14.00;10.07;;;2.00;67.10;;;;;;5115031;28;20481;-82
2023/01/26 04:24:13;;;;;;;17.27;11.60;;;2.00;67.50;;;;;;5115269;28;20831;-81
2023/01/26 04:26:39;;;;;;;15.70;10.67;;;2.10;67.70;;;;;;5116634;28;20428;-82
2023/01/26 04:29:10;;;;;;;18.27;11.20;;;1.90;67.70;;;;;;5117463;28;20418;-81
2023/01/26 04:31:37;;;;;;;14.97;10.57;;;1.90;67.90;;;;;;5119103;28;20453;-80
2023/01/26 04:34:05;;;;;;;19.23;11.57;;;2.00;68.00;;;;;;5119252;28;20459;-80
2023/01/26 04:36:31;;;;;;;16.97;9.90;;;1.90;67.80;;;;;;5118341;28;20410;-80
2023/01/26 04:38:57;;;;;;;20.53;10.70;;;1.80;68.10;;;;;;5117638;28;20430;-80
2023/01/26 04:41:22;;;;;;;17.73;12.43;;;1.70;68.60;;;;;;5117712;28;20446;-81
2023/01/26 04:43:49;;;;;;;14.63;9.73;;;1.70;68.80;;;;;;5119106;28;20906;-80
2023/01/26 04:46:15;;;;;;;22.53;11.77;;;1.80;68.90;;;;;;5117702;28;20500;-81
2023/01/26 04:48:43;;;;;;;15.30;10.23;;;1.90;68.70;;;;;;5118649;28;20426;-82
2023/01/26 04:51:12;;;;;;;18.00;11.10;;;2.00;68.60;;;;;;5117553;28;20436;-81
2023/01/26 04:53:38;;;;;;;17.63;10.47;;;2.10;68.40;;;;;;5117178;28;20940;-83
2023/01/26 04:56:04;;;;;;;16.03;10.33;;;2.10;68.20;;;;;;5118539;28;20484;-83
2023/01/26 04:58:31;;;;;;;17.33;10.70;;;2.20;68.40;;;;;;5117466;28;20194;-82
2023/01/26 05:00:57;;;;;;;18.63;11.23;;;2.10;68.10;;;;;;5120590;28;20411;-81
2023/01/26 05:03:24;;;;;;;21.13;12.13;;;2.20;68.40;;;;;;5120092;28;20419;-81
2023/01/26 05:05:52;;;;;;;19.33;13.13;;;2.20;68.30;;;;;;5117922;28;20793;-81
2023/01/26 05:08:19;;;;;;;18.30;10.90;;;2.30;68.40;;;;;;5118858;28;20425;-80
2023/01/26 05:10:46;;;;;;;16.30;11.03;;;2.40;68.50;;;;;;5118710;28;20411;-80
2023/01/26 05:13:12;;;;;;;18.50;11.80;;;2.40;67.90;;;;;;5118981;28;20398;-80
2023/01/26 05:15:38;;;;;;;17.87;10.77;;;2.50;68.00;;;;;;5117597;28;20502;-80
2023/01/26 05:18:05;;;;;;;17.00;10.07;;;2.50;67.50;;;;;;5118595;28;20575;-79
2023/01/26 05:20:31;;;;;;;17.30;11.97;;;2.50;67.30;;;;;;5118351;28;20397;-80
2023/01/26 05:22:56;;;;;;;17.93;11.00;;;2.50;67.10;;;;;;5117258;28;20431;-80
2023/01/26 05:25:22;;;;;;;15.30;9.83;;;2.40;66.70;;;;;;5118511;28;20438;-81
2023/01/26 05:27:48;;;;;;;19.37;11.33;;;2.30;66.80;;;;;;5118134;28;20199;-80
2023/01/26 05:30:15;;;;;;;20.07;11.30;;;2.30;67.30;;;;;;5117112;28;20567;-81
2023/01/26 05:32:40;;;;;;;19.40;11.00;;;2.30;67.20;;;;;;5116866;28;20182;-81
2023/01/26 05:35:07;;;;;;;19.40;11.87;;;2.20;67.30;;;;;;5116879;28;20469;-80
2023/01/26 05:37:33;;;;;;;15.60;10.67;;;2.20;67.70;;;;;;5115819;28;20185;-79
2023/01/26 05:39:59;;;;;;;14.97;10.30;;;2.30;67.90;;;;;;5116743;28;20497;-81
2023/01/26 05:42:25;;;;;;;20.90;12.70;;;2.30;67.80;;;;;;5116681;28;20435;-81
2023/01/26 05:44:51;;;;;;;18.13;11.00;;;2.40;67.30;;;;;;5116756;28;20498;-81
2023/01/26 05:47:17;;;;;;;20.67;10.77;;;2.50;67.30;;;;;;5116321;28;20500;-81
2023/01/26 05:49:44;;;;;;;19.47;11.07;;;2.50;66.70;;;;;;5117745;28;20456;-81
2023/01/26 05:52:29;;;;;;;18.50;10.70;;;2.50;66.80;;;;;;5116215;28;20412;-80
2023/01/26 05:54:55;;;;;;;15.17;10.73;;;2.60;66.80;;;;;;5116007;28;20457;-80
2023/01/26 05:57:20;;;;;;;17.57;11.17;;;2.60;66.90;;;;;;5116062;28;20540;-80
2023/01/26 05:59:46;;;;;;;15.93;9.60;;;2.60;66.80;;;;;;5116463;28;20192;-81
2023/01/26 06:02:12;;;;;;;18.47;11.80;;;2.70;66.90;;;;;;5117596;28;20169;-81
2023/01/26 06:04:38;;;;;;;17.20;11.00;;;2.60;66.20;;;;;;5117239;28;20194;-81
2023/01/26 06:07:04;;;;;;;17.00;10.53;;;2.50;66.00;;;;;;5115821;28;20230;-81
2023/01/26 06:09:29;;;;;;;14.80;9.80;;;2.40;66.20;;;;;;5115994;28;20806;-80
2023/01/26 06:11:56;;;;;;;18.77;10.43;;;2.30;66.40;;;;;;5116138;28;20447;-80
2023/01/26 06:14:22;;;;;;;17.20;10.50;;;2.20;66.90;;;;;;5116067;28;20207;-80
2023/01/26 06:16:47;;;;;;;22.47;11.83;;;2.20;66.90;;;;;;5116072;28;20416;-80
2023/01/26 06:19:13;;;;;;;16.53;11.63;;;2.30;66.90;;;;;;5116760;28;20431;-81
2023/01/26 06:21:39;;;;;;;17.33;11.10;;;2.40;66.90;;;;;;5115802;28;20179;-80
2023/01/26 06:24:05;;;;;;;18.50;10.97;;;2.50;67.00;;;;;;5117270;28;20169;-81
2023/01/26 06:26:31;;;;;;;15.57;10.60;;;2.40;66.50;;;;;;5117389;28;20575;-80
2023/01/26 06:28:57;;;;;;;19.87;12.33;;;2.50;66.30;;;;;;5115695;28;20493;-81
2023/01/26 06:31:28;;;;;;;17.90;12.47;;;2.50;66.60;;;;;;5116055;28;20189;-80
2023/01/26 06:33:54;;;;;;;22.30;13.30;;;2.60;66.60;;;;;;5116501;28;20175;-80
2023/01/26 06:36:20;;;;;;;19.53;11.10;;;2.60;66.50;;;;;;5115660;28;20413;-81
2023/01/26 06:38:48;;;;;;;23.93;12.53;;;2.50;66.50;;;;;;5115344;28;20476;-81
2023/01/26 06:41:15;;;;;;;19.07;10.87;;;2.60;66.70;;;;;;5115489;28;20411;-80
2023/01/26 06:43:46;;;;;;;21.67;12.43;;;2.50;66.80;;;;;;5116031;28;20420;-80
2023/01/26 06:46:12;;;;;;;18.63;11.70;;;2.50;67.00;;;;;;5117019;28;20449;-80
2023/01/26 06:48:38;;;;;;;18.27;11.60;;;2.50;67.00;;;;;;5114292;28;20948;-80
2023/01/26 06:51:47;;;;;;;19.87;11.20;;;2.50;67.10;;;;;;5115361;28;20641;-81
2023/01/26 06:54:13;;;;;;;17.30;11.33;;;2.60;66.80;;;;;;5115006;28;20492;-80
2023/01/26 06:56:39;;;;;;;19.20;11.53;;;2.60;66.90;;;;;;5116366;28;20823;-80
2023/01/26 06:59:05;;;;;;;16.93;11.33;;;2.60;66.80;;;;;;5116123;28;20481;-80
2023/01/26 07:01:47;;;;;;;18.33;11.87;;;2.60;66.70;;;;;;5114993;28;20777;-81
2023/01/26 07:04:17;;;;;;;17.30;11.47;;;2.60;66.60;;;;;;5115114;28;20970;-81
2023/01/26 07:06:52;;;;;;;20.83;11.70;;;2.60;66.40;;;;;;5114947;28;20800;-81
2023/01/26 07:09:17;;;;;;;22.47;12.50;;;2.60;66.60;;;;;;5116294;28;20426;-80
2023/01/26 07:11:43;;;;;;;18.10;12.10;;;2.60;66.70;;;;;;5116083;28;20777;-81
2023/01/26 07:14:09;;;;;;;21.17;11.80;;;2.60;66.70;;;;;;5116356;28;20542;-82
2023/01/26 07:16:34;;;;;;;18.50;11.87;;;2.60;66.90;;;;;;5115069;28;20184;-80
2023/01/26 07:19:02;;;;;;;23.13;14.03;;;2.60;66.90;;;;;;5115570;28;20194;-80
2023/01/26 07:21:28;;;;;;;20.00;11.67;;;2.60;66.90;;;;;;5114861;28;20175;-81
2023/01/26 07:23:55;;;;;;;18.87;11.63;;;2.60;66.90;;;;;;5114701;28;20884;-80
2023/01/26 07:26:21;;;;;;;20.30;12.87;;;2.60;67.30;;;;;;5115759;28;20168;-82
2023/01/26 07:28:53;;;;;;;18.00;11.90;;;2.60;67.50;;;;;;5114390;28;20426;-80
2023/01/26 07:31:18;;;;;;;21.53;13.17;;;2.60;67.30;;;;;;5114611;28;20491;-82
2023/01/26 07:33:44;;;;;;;21.13;11.60;;;2.60;67.30;;;;;;5115171;28;20440;-83
2023/01/26 07:36:10;;;;;;;14.03;10.50;;;2.70;67.00;;;;;;5114805;28;20173;-83
2023/01/26 07:38:35;;;;;;;19.40;12.23;;;2.60;66.60;;;;;;5117409;28;20222;-83
2023/01/26 07:41:10;;;;;;;18.67;11.17;;;2.70;66.80;;;;;;5116676;28;20173;-83
2023/01/26 07:43:37;;;;;;;22.07;14.43;;;2.80;66.90;;;;;;5115318;28;20176;-83
2023/01/26 07:46:03;;;;;;;18.50;12.37;;;2.70;66.60;;;;;;5115071;28;20787;-83
2023/01/26 07:48:29;;;;;;;23.93;13.37;;;2.80;66.60;;;;;;5114595;28;20441;-82
2023/01/26 07:50:59;;;;;;;16.83;12.20;;;2.70;66.40;;;;;;5114987;28;20421;-82
2023/01/26 07:53:28;;;;;;;22.40;14.13;;;2.60;66.80;;;;;;5115981;28;20441;-82
2023/01/26 07:56:08;;;;;;;23.57;12.40;;;2.50;66.70;;;;;;5114915;28;20460;-82
2023/01/26 07:58:35;;;;;;;18.93;12.00;;;2.30;67.60;;;;;;5116152;28;20421;-82
2023/01/26 08:01:19;;;;;;;21.83;12.80;;;2.40;68.10;;;;;;5115849;28;20907;-74
2023/01/26 08:03:47;;;;;;;17.47;12.10;;;2.50;70.20;;;;;;5115836;28;20493;-82
2023/01/26 08:06:13;;;;;;;20.93;12.80;;;2.60;69.00;;;;;;5116069;28;20409;-81
2023/01/26 08:08:40;;;;;;;23.50;13.63;;;2.60;67.50;;;;;;5114854;28;20436;-79
2023/01/26 08:11:06;;;;;;;23.60;14.70;;;2.50;67.10;;;;;;5114865;28;20173;-79
2023/01/26 08:13:32;;;;;;;21.80;12.20;;;2.50;67.10;;;;;;5115040;28;20404;-81
2023/01/26 08:16:04;;;;;;;19.10;14.17;;;2.40;66.80;;;;;;5113901;28;20478;-80
2023/01/26 08:18:30;;;;;;;19.47;11.90;;;2.40;66.80;;;;;;5114749;28;20843;-81
2023/01/26 08:20:56;;;;;;;22.57;12.03;;;2.30;66.80;;;;;;5113625;28;20414;-81
2023/01/26 08:23:22;;;;;;;17.13;11.67;;;2.40;67.50;;;;;;5114789;28;20407;-81
2023/01/26 08:25:48;;;;;;;23.00;13.07;;;2.50;67.40;;;;;;5114610;28;20409;-80
2023/01/26 08:28:14;;;;;;;19.63;12.43;;;2.50;67.00;;;;;;5114572;28;20432;-81
2023/01/26 08:30:39;;;;;;;20.17;12.43;;;2.50;66.70;;;;;;5114601;28;20172;-81
2023/01/26 08:33:06;;;;;;;21.40;12.00;;;2.50;67.00;;;;;;5114940;28;20433;-80
2023/01/26 08:35:34;;;;;;;18.40;12.03;;;2.40;67.30;;;;;;5114412;28;20465;-80
2023/01/26 08:38:00;;;;;;;19.67;12.77;;;2.40;67.70;;;;;;5114611;28;20519;-80
2023/01/26 08:40:26;;;;;;;18.60;10.80;;;2.20;67.90;;;;;;5113256;28;20442;-81
2023/01/26 08:42:52;;;;;;;17.90;12.07;;;2.00;68.60;;;;;;5113324;28;20179;-80
2023/01/26 08:45:17;;;;;;;17.17;12.00;;;2.00;69.00;;;;;;5114912;28;20177;-80
2023/01/26 08:47:44;;;;;;;20.07;11.63;;;2.10;69.30;;;;;;5113084;28;20490;-80
2023/01/26 08:50:10;;;;;;;20.20;12.30;;;2.10;69.10;;;;;;5114667;28;20253;-79
2023/01/26 08:52:35;;;;;;;24.67;12.90;;;2.10;69.10;;;;;;5114626;28;20491;-80
2023/01/26 08:55:03;;;;;;;22.03;13.57;;;2.10;69.10;;;;;;5114666;28;20248;-81
2023/01/26 08:57:29;;;;;;;17.60;10.97;;;2.10;69.20;;;;;;5113719;28;20176;-80
2023/01/26 08:59:54;;;;;;;21.03;11.10;;;2.10;69.20;;;;;;5115473;28;20425;-81
2023/01/26 09:02:20;;;;;;;18.87;11.60;;;2.10;69.00;;;;;;5115227;28;20170;-80
2023/01/26 09:04:46;;;;;;;19.10;12.33;;;2.10;69.00;;;;;;5119664;28;20581;-85
2023/01/26 09:07:12;;;;;;;17.53;11.77;;;2.10;68.80;;;;;;5117071;28;20187;-87
2023/01/26 09:09:37;;;;;;;21.17;13.30;;;2.10;68.30;;;;;;5115369;28;20204;-85
2023/01/26 09:12:03;;;;;;;19.40;12.97;;;2.00;68.40;;;;;;5117920;28;20225;-83
2023/01/26 09:14:29;;;;;;;21.40;14.10;;;2.10;68.40;;;;;;5120874;28;20201;-84
2023/01/26 09:16:55;;;;;;;22.03;13.93;;;2.20;68.00;;;;;;5124786;28;20435;-86
2023/01/26 09:19:31;;;;;;;17.33;11.50;;;2.20;67.90;;;;;;5124642;28;20201;-86
2023/01/26 09:21:56;;;;;;;21.97;12.50;;;2.20;67.60;;;;;;5121898;28;20152;-85
2023/01/26 09:24:24;;;;;;;17.37;11.13;;;2.00;67.60;;;;;;5121064;28;20421;-85
2023/01/26 09:26:51;;;;;;;18.67;11.17;;;1.90;68.20;;;;;;5121420;28;20182;-86
2023/01/26 09:29:17;;;;;;;19.07;11.73;;;1.70;68.60;;;;;;5119875;28;20436;-85
2023/01/26 09:31:46;;;;;;;22.30;11.27;;;1.70;69.60;;;;;;5133971;28;20397;-85
2023/01/26 09:34:12;;;;;;;19.13;11.93;;;1.80;69.10;;;;;;5127797;28;20876;-86
2023/01/26 09:36:40;;;;;;;16.00;11.60;;;1.90;69.00;;;;;;5118919;28;20410;-86
2023/01/26 09:39:08;;;;;;;22.73;13.40;;;1.90;68.70;;;;;;5119365;28;20202;-86
2023/01/26 09:41:51;;;;;;;17.37;10.23;;;2.00;68.50;;;;;;5119814;28;20496;-86
2023/01/26 09:44:24;;;;;;;18.73;12.07;;;1.90;68.20;;;;;;5121449;28;20412;-86
2023/01/26 09:46:59;;;;;;;20.80;11.63;;;2.00;68.20;;;;;;5118828;28;20434;-85
2023/01/26 09:49:48;;;;;;;18.17;10.60;;;2.10;68.20;;;;;;5119199;28;20450;-86
2023/01/26 09:52:37;;;;;;;20.63;11.40;;;2.10;67.50;;;;;;5119449;28;20425;-87
2023/01/26 09:55:11;;;;;;;21.50;10.90;;;2.20;67.50;;;;;;5116561;28;20876;-76
2023/01/26 09:57:48;;;;;;;20.17;12.20;;;2.10;67.40;;;;;;5117685;28;20810;-76
2023/01/26 10:00:42;;;;;;;20.10;11.10;;;2.10;67.40;;;;;;5116811;28;20827;-78
2023/01/26 10:03:22;;;;;;;20.90;12.20;;;2.10;67.80;;;;;;5117657;28;20387;-82
2023/01/26 10:06:14;;;;;;;22.20;11.33;;;2.00;67.80;;;;;;5116978;28;20476;-82
2023/01/26 10:08:42;;;;;;;13.47;9.57;;;2.00;67.90;;;;;;5116696;28;20442;-82
2023/01/26 10:11:37;;;;;;;14.70;9.27;;;1.90;67.70;;;;;;5118206;28;20405;-82
2023/01/26 10:14:25;;;;;;;15.00;8.67;;;1.60;68.10;;;;;;5118199;28;20383;-82
2023/01/26 10:16:52;;;;;;;17.10;9.23;;;1.70;69.10;;;;;;5107220;28;20463;-82
2023/01/26 10:19:38;;;;;;;16.20;10.60;;;1.70;68.60;;;;;;5119497;28;20456;-82
2023/01/26 10:22:47;;;;;;;13.50;8.93;;;1.80;68.60;;;;;;5119187;28;20424;-83
2023/01/26 10:25:16;;;;;;;18.07;11.30;;;1.90;68.30;;;;;;5101971;28;20425;-83
2023/01/26 10:27:44;;;;;;;19.60;12.23;;;1.90;68.00;;;;;;5118381;28;20400;-84
2023/01/26 10:30:15;;;;;;;17.43;10.43;;;2.10;68.20;;;;;;5119460;28;20788;-84
2023/01/26 10:32:42;;;;;;;16.27;10.97;;;2.00;67.50;;;;;;5118967;28;20811;-84
2023/01/26 10:35:20;;;;;;;14.00;10.63;;;2.10;67.40;;;;;;5117928;28;20505;-84
2023/01/26 10:37:46;;;;;;;17.27;9.60;;;2.30;67.20;;;;;;5116994;28;20398;-83
2023/01/26 10:40:12;;;;;;;15.70;10.30;;;2.40;66.60;;;;;;5116551;28;20421;-83
2023/01/26 10:42:39;;;;;;;15.77;9.47;;;2.30;66.20;;;;;;5116095;28;20414;-83
2023/01/26 10:45:31;;;;;;;12.53;7.40;;;2.50;66.20;;;;;;5116344;28;20408;-83
2023/01/26 10:48:13;;;;;;;17.93;9.23;;;2.50;65.80;;;;;;5116411;28;20440;-86
2023/01/26 10:50:39;;;;;;;13.03;8.40;;;2.60;65.40;;;;;;5116119;28;20410;-83
2023/01/26 10:53:04;;;;;;;19.63;10.30;;;2.50;65.30;;;;;;5116758;28;20439;-82
2023/01/26 10:55:36;;;;;;;15.47;9.47;;;2.30;65.60;;;;;;5117157;28;20679;-83
2023/01/26 10:58:01;;;;;;;16.40;9.00;;;2.40;66.20;;;;;;5116512;28;20439;-83
2023/01/26 11:00:33;;;;;;;17.87;11.77;;;2.50;66.20;;;;;;5118128;28;20407;-83
2023/01/26 11:03:12;;;;;;;15.67;9.67;;;2.50;65.70;;;;;;5118282;28;20198;-84
2023/01/26 11:05:38;;;;;;;18.40;9.50;;;2.60;65.60;;;;;;5121376;28;20430;-83
2023/01/26 11:08:34;;;;;;;15.00;9.30;;;2.60;65.30;;;;;;5120218;28;20442;-83
2023/01/26 11:11:02;;;;;;;14.53;9.17;;;2.60;65.60;;;;;;5126398;28;20414;-83
2023/01/26 11:13:28;;;;;;;14.77;9.60;;;2.60;65.70;;;;;;5124488;28;20409;-83
2023/01/26 11:16:04;;;;;;;17.00;9.67;;;2.60;65.70;;;;;;5126081;28;20518;-82
2023/01/26 11:18:57;;;;;;;18.37;10.27;;;2.60;65.90;;;;;;5126031;28;20515;-83
2023/01/26 11:21:39;;;;;;;19.17;10.40;;;2.70;65.80;;;;;;5118345;28;20410;-82
2023/01/26 11:24:24;;;;;;;17.00;11.30;;;2.70;65.40;;;;;;5120382;28;20404;-83
2023/01/26 11:26:52;;;;;;;16.10;9.80;;;2.60;65.10;;;;;;5117158;28;20403;-83
2023/01/26 11:29:45;;;;;;;17.67;10.37;;;2.50;64.80;;;;;;5118067;28;20424;-82
2023/01/26 11:32:29;;;;;;;15.37;10.20;;;2.50;65.70;;;;;;5117113;28;20385;-83
2023/01/26 11:35:13;;;;;;;20.83;11.03;;;2.40;65.90;;;;;;5115536;28;20474;-83
2023/01/26 11:37:44;;;;;;;15.70;9.53;;;2.40;67.00;;;;;;5118245;28;20854;-83
2023/01/26 11:40:10;;;;;;;19.13;10.63;;;2.40;67.20;;;;;;5117260;28;20480;-83
2023/01/26 11:42:46;;;;;;;15.90;9.90;;;2.40;67.70;;;;;;5117413;28;20928;-82
2023/01/26 11:45:19;;;;;;;16.90;9.97;;;2.50;67.90;;;;;;5119773;28;20224;-83
2023/01/26 11:48:24;;;;;;;13.83;9.13;;;2.30;67.50;;;;;;5133732;28;20393;-84
2023/01/26 11:51:09;;;;;;;17.40;9.40;;;2.30;68.10;;;;;;5117197;28;20409;-82
2023/01/26 11:54:02;;;;;;;20.20;10.33;;;2.30;67.60;;;;;;5116669;28;20424;-82
2023/01/26 11:57:10;;;;;;;13.30;8.73;;;2.40;68.10;;;;;;5115677;28;20429;-82
2023/01/26 11:59:41;;;;;;;19.33;10.77;;;2.50;68.00;;;;;;5104782;28;20445;-82
2023/01/26 12:02:28;;;;;;;16.97;11.80;;;2.30;67.40;;;;;;5115395;28;20413;-82
2023/01/26 12:05:02;;;;;;;18.73;12.20;;;2.40;68.00;;;;;;5115514;28;20808;-82
2023/01/26 12:07:54;;;;;;;19.83;11.43;;;2.40;67.60;;;;;;5116037;28;20475;-84
2023/01/26 12:10:39;;;;;;;20.20;13.60;;;2.30;68.10;;;;;;5116715;28;20411;-84
2023/01/26 12:13:36;;;;;;;19.90;10.40;;;2.30;68.70;;;;;;5117354;28;20409;-84
2023/01/26 12:16:17;;;;;;;19.30;10.27;;;2.20;69.00;;;;;;5117337;28;20443;-84
2023/01/26 12:18:56;;;;;;;18.70;10.73;;;2.20;69.40;;;;;;5115560;28;20436;-84
2023/01/26 12:21:22;;;;;;;22.57;12.13;;;2.10;69.60;;;;;;5117546;28;20397;-84
2023/01/26 12:24:01;;;;;;;32.40;17.57;;;2.20;70.20;;;;;;5117313;28;20813;-84
2023/01/26 12:26:31;;;;;;;23.33;12.03;;;2.20;70.10;;;;;;5116635;28;20407;-82
2023/01/26 12:28:59;;;;;;;22.50;10.80;;;2.20;69.40;;;;;;5116174;28;20520;-83
2023/01/26 12:31:33;;;;;;;17.23;10.87;;;2.00;70.00;;;;;;5116713;28;20428;-83
2023/01/26 12:33:58;;;;;;;19.57;10.20;;;1.90;70.30;;;;;;5116906;28;20408;-84
2023/01/26 12:36:59;;;;;;;16.37;9.00;;;1.90;70.30;;;;;;5117508;28;20466;-83
2023/01/26 12:39:50;;;;;;;15.57;7.60;;;2.00;70.20;;;;;;5105443;28;20623;-85
2023/01/26 12:42:56;;;;;;;14.27;8.63;;;1.90;69.90;;;;;;5125150;28;20412;-85
2023/01/26 12:45:39;;;;;;;14.50;8.77;;;1.90;70.50;;;;;;5118687;28;20411;-84
2023/01/26 12:48:24;;;;;;;11.80;7.53;;;1.90;70.40;;;;;;5127245;28;20437;-84
2023/01/26 12:51:03;;;;;;;13.97;7.70;;;2.00;69.90;;;;;;5128225;28;20414;-84
2023/01/26 12:53:38;;;;;;;12.87;7.23;;;2.00;69.60;;;;;;5131176;28;20756;-84
2023/01/26 12:56:36;;;;;;;16.17;7.83;;;2.00;69.40;;;;;;5128933;28;20461;-84
2023/01/26 12:59:25;;;;;;;15.17;8.43;;;2.10;69.40;;;;;;5127627;28;20435;-84
2023/01/26 13:01:51;;;;;;;14.07;7.67;;;2.00;69.90;;;;;;5126838;28;20414;-85
2023/01/26 13:04:19;;;;;;;20.67;10.87;;;1.90;70.70;;;;;;5124909;28;20517;-85
2023/01/26 13:07:28;;;;;;;21.77;12.27;;;1.90;71.00;;;;;;5126800;28;20417;-84
2023/01/26 13:10:12;;;;;;;27.53;15.93;;;1.70;71.50;;;;;;5127794;28;20446;-84
2023/01/26 13:13:00;;;;;;;16.20;8.20;;;1.60;72.00;;;;;;5128652;28;20444;-85
2023/01/26 13:15:31;;;;;;;11.80;8.00;;;1.60;72.30;;;;;;5129248;28;20458;-83
2023/01/26 13:17:59;;;;;;;13.70;8.60;;;1.50;72.50;;;;;;5128245;28;20462;-85
2023/01/26 13:20:41;;;;;;;10.57;6.73;;;1.50;72.90;;;;;;5120014;28;20769;-84
2023/01/26 13:23:35;;;;;;;12.70;8.13;;;1.30;72.60;;;;;;5119496;28;20412;-84
2023/01/26 13:26:20;;;;;;;11.63;7.00;;;1.20;73.50;;;;;;5118979;28;20411;-84
2023/01/26 13:28:51;;;;;;;11.73;7.53;;;1.20;74.00;;;;;;5122371;28;20506;-84
2023/01/26 13:31:33;;;;;;;13.27;7.30;;;1.30;74.20;;;;;;5123153;28;20407;-83
2023/01/26 13:34:05;;;;;;;12.40;6.97;;;1.40;74.10;;;;;;5120601;28;20435;-84
2023/01/26 13:36:47;;;;;;;11.97;6.00;;;1.40;73.70;;;;;;5119402;28;20419;-84
2023/01/26 13:39:28;;;;;;;12.43;5.67;;;1.40;73.30;;;;;;5118134;28;20431;-85
2023/01/26 13:41:54;;;;;;;15.77;7.97;;;1.40;73.30;;;;;;5118147;28;20509;-84
2023/01/26 13:44:37;;;;;;;13.40;6.67;;;1.30;73.00;;;;;;5118500;28;20914;-84